Austin, Texas
Traffic Map
Current Weather Conditions
Austin, Texas
Clear
Clear
35°
Feels Like: 39°
Wind Chill: 35° Ceiling: Unl
Heat Index: 39° Visibility: 10mi
Dew Point: 22° Wind: 3mph
Humidity: 46% Direction: ° ()
Pressure: 29.97in Gusts: 0mph
Raw Report DataKATT 241751Z AUTO VRB03KT 10SM CLR 35/22 A2997 RMK AO2 SLP133 T03500217 10361 20261 58006
Traffic Incident Summary
Active as of:
Severity:
Category:
InformationThere was an issue retrieving the traffic information for this location. Please try a different location or try again shortly.
Advertisements
Track Severe Weather on mobile